createdAt,value
2022-12-14T00:02:06.818Z,54.87
2022-12-14T00:04:39.836Z,55.00
2022-12-14T00:07:12.882Z,55.07
2022-12-14T00:09:47.666Z,55.02
2022-12-14T00:12:22.641Z,55.24
2022-12-14T00:14:54.816Z,55.33
2022-12-14T00:17:27.423Z,55.28
2022-12-14T00:20:00.003Z,55.20
2022-12-14T00:22:40.173Z,55.29
2022-12-14T00:25:12.826Z,55.28
2022-12-14T00:27:47.123Z,55.13
2022-12-14T00:30:21.208Z,55.24
2022-12-14T00:32:54.710Z,55.20
2022-12-14T00:35:28.231Z,55.20
2022-12-14T00:38:04.496Z,55.09
2022-12-14T00:40:36.481Z,55.09
2022-12-14T00:43:08.465Z,55.06
2022-12-14T00:45:40.605Z,55.01
2022-12-14T00:48:15.827Z,54.95
2022-12-14T00:50:51.942Z,55.24
2022-12-14T00:53:28.722Z,55.19
2022-12-14T00:56:09.951Z,55.03
2022-12-14T00:58:44.642Z,55.17
2022-12-14T01:01:18.110Z,55.17
2022-12-14T01:04:13.581Z,55.03
2022-12-14T01:06:50.993Z,54.95
2022-12-14T01:09:26.665Z,55.06
2022-12-14T01:12:02.984Z,55.23
2022-12-14T01:14:39.345Z,55.20
2022-12-14T01:17:13.353Z,55.30
2022-12-14T01:19:48.953Z,55.16
2022-12-14T01:22:24.524Z,55.20
2022-12-14T01:25:00.436Z,55.17
2022-12-14T01:27:38.303Z,55.02
2022-12-14T01:30:19.689Z,55.08
2022-12-14T01:32:53.953Z,55.07
2022-12-14T01:35:27.560Z,54.89
2022-12-14T01:38:01.591Z,55.04
2022-12-14T01:40:35.328Z,54.91
2022-12-14T01:43:14.399Z,54.93
2022-12-14T01:45:49.737Z,54.83
2022-12-14T01:48:26.174Z,54.83
2022-12-14T01:50:59.019Z,54.87
2022-12-14T01:53:34.832Z,55.07
2022-12-14T01:56:11.007Z,55.00
2022-12-14T01:58:46.283Z,54.92
2022-12-14T02:01:20.807Z,54.86
2022-12-14T02:03:55.704Z,54.85
2022-12-14T02:06:35.808Z,54.95
2022-12-14T02:09:12.822Z,55.01
2022-12-14T02:11:51.725Z,55.02
2022-12-14T02:14:26.442Z,54.78
2022-12-14T02:17:03.387Z,54.89
2022-12-14T02:19:38.556Z,54.83
2022-12-14T02:22:32.821Z,54.97
2022-12-14T02:25:23.429Z,54.95
2022-12-14T02:28:34.056Z,54.94
2022-12-14T02:31:15.910Z,55.00
2022-12-14T02:33:52.995Z,55.02
2022-12-14T02:36:32.886Z,54.98
2022-12-14T02:39:17.984Z,54.96
2022-12-14T02:41:56.783Z,54.80
2022-12-14T02:44:35.695Z,54.65
2022-12-14T02:47:13.026Z,54.68
2022-12-14T02:49:59.795Z,54.84
2022-12-14T02:52:43.084Z,54.84
2022-12-14T02:55:23.152Z,54.80
2022-12-14T02:58:02.271Z,54.84
2022-12-14T03:00:37.090Z,54.94
2022-12-14T03:03:10.592Z,54.93
2022-12-14T03:05:43.486Z,54.82
2022-12-14T03:08:17.069Z,55.02
2022-12-14T03:10:51.860Z,55.07
2022-12-14T03:13:30.144Z,54.94
2022-12-14T03:16:09.421Z,54.90
2022-12-14T03:18:51.664Z,55.13
2022-12-14T03:21:29.277Z,55.25
2022-12-14T03:24:06.107Z,55.31
2022-12-14T03:26:47.218Z,55.34
2022-12-14T03:29:24.459Z,55.07
2022-12-14T03:31:57.834Z,54.87
2022-12-14T03:34:33.328Z,54.76
2022-12-14T03:37:13.500Z,54.95
2022-12-14T03:39:46.890Z,54.95
2022-12-14T03:42:24.975Z,55.18
2022-12-14T03:48:34.524Z,54.79
2022-12-14T03:51:13.064Z,55.06
2022-12-14T03:53:51.085Z,55.07
2022-12-14T03:56:28.453Z,55.13
2022-12-14T03:59:06.720Z,55.06
2022-12-14T04:01:44.907Z,54.88
2022-12-14T04:04:20.577Z,54.86
2022-12-14T04:06:57.827Z,55.03
2022-12-14T04:09:34.829Z,54.94
2022-12-14T04:12:32.174Z,55.20
2022-12-14T04:15:25.246Z,55.01
2022-12-14T04:18:19.097Z,54.89
2022-12-14T04:20:56.698Z,54.92
2022-12-14T04:23:53.343Z,54.89
2022-12-14T04:26:33.624Z,54.98
2022-12-14T04:29:29.944Z,55.03
2022-12-14T04:32:11.485Z,55.11
2022-12-14T04:34:46.234Z,55.15
2022-12-14T04:37:24.752Z,55.02
2022-12-14T04:39:59.602Z,55.07
2022-12-14T04:42:36.491Z,55.18
2022-12-14T04:45:14.534Z,55.03
2022-12-14T04:47:55.748Z,55.14
2022-12-14T04:50:35.431Z,55.13
2022-12-14T04:53:13.273Z,55.16
2022-12-14T04:55:50.151Z,55.18
2022-12-14T04:58:27.515Z,55.29
2022-12-14T05:01:09.806Z,55.32
2022-12-14T05:03:50.021Z,55.51
2022-12-14T05:06:28.850Z,55.42
2022-12-14T05:09:12.719Z,55.57
2022-12-14T05:11:54.289Z,55.58
2022-12-14T05:14:29.801Z,55.38
2022-12-14T05:17:08.473Z,55.46
2022-12-14T05:19:48.754Z,55.40
2022-12-14T05:22:22.004Z,55.35
2022-12-14T05:24:54.583Z,55.50
2022-12-14T05:27:26.633Z,55.47
2022-12-14T05:30:00.087Z,55.38
2022-12-14T05:32:35.292Z,55.25
2022-12-14T05:35:11.214Z,55.06
2022-12-14T05:37:44.535Z,55.30
2022-12-14T05:40:17.330Z,55.33
2022-12-14T05:42:55.629Z,55.37
2022-12-14T05:45:29.352Z,55.21
2022-12-14T05:48:01.580Z,55.41
2022-12-14T05:50:34.901Z,55.45
2022-12-14T05:53:08.659Z,55.39
2022-12-14T05:55:42.724Z,55.33
2022-12-14T05:58:16.852Z,55.26
2022-12-14T06:00:53.888Z,55.41
2022-12-14T06:03:30.236Z,55.47
2022-12-14T06:06:05.724Z,55.39
2022-12-14T06:08:39.716Z,55.36
2022-12-14T06:11:13.967Z,55.43
2022-12-14T06:13:49.327Z,55.21
2022-12-14T06:16:26.600Z,55.30
2022-12-14T06:19:00.551Z,55.34
2022-12-14T06:21:35.250Z,55.36
2022-12-14T06:24:09.907Z,55.23
2022-12-14T06:26:42.483Z,55.34
2022-12-14T06:29:18.486Z,55.34
2022-12-14T06:31:53.700Z,55.38
2022-12-14T06:34:28.764Z,55.32
2022-12-14T06:37:03.389Z,55.46
2022-12-14T06:39:37.752Z,55.53
2022-12-14T06:42:11.970Z,55.41
2022-12-14T06:44:48.392Z,55.50
2022-12-14T06:47:21.416Z,55.40
2022-12-14T06:49:55.012Z,55.51
2022-12-14T06:52:28.081Z,55.45
2022-12-14T06:55:01.448Z,55.52
2022-12-14T06:57:33.991Z,55.56
2022-12-14T07:00:12.587Z,55.50
2022-12-14T07:02:45.656Z,55.52
2022-12-14T07:05:20.730Z,55.22
2022-12-14T07:07:52.749Z,54.97
2022-12-14T07:10:26.674Z,55.20
2022-12-14T07:12:59.957Z,55.08
2022-12-14T07:15:35.548Z,55.37
2022-12-14T07:18:08.870Z,55.26
2022-12-14T07:20:43.636Z,55.09
2022-12-14T07:23:17.399Z,55.14
2022-12-14T07:25:50.990Z,55.02
2022-12-14T07:28:24.520Z,55.32
2022-12-14T07:31:01.685Z,54.90
2022-12-14T07:33:35.522Z,54.80
2022-12-14T07:36:09.914Z,54.96
2022-12-14T07:38:43.460Z,54.98
2022-12-14T07:41:22.009Z,55.24
2022-12-14T07:43:57.369Z,55.19
2022-12-14T07:46:32.302Z,55.27
2022-12-14T07:49:05.389Z,55.20
2022-12-14T07:51:41.305Z,55.26
2022-12-14T07:54:14.452Z,55.25
2022-12-14T07:56:46.372Z,55.13
2022-12-14T07:59:24.536Z,55.01
2022-12-14T08:01:56.802Z,54.87
2022-12-14T08:04:30.326Z,54.83
2022-12-14T08:07:05.699Z,54.72
2022-12-14T08:09:37.821Z,54.73
2022-12-14T08:12:11.161Z,54.81
2022-12-14T08:14:44.623Z,54.96
2022-12-14T08:17:17.077Z,55.09
2022-12-14T08:19:52.015Z,54.83
2022-12-14T08:22:28.189Z,54.53
2022-12-14T08:25:01.528Z,54.37
2022-12-14T08:27:37.244Z,54.37
2022-12-14T08:30:13.007Z,54.30
2022-12-14T08:32:45.412Z,54.11
2022-12-14T08:35:18.493Z,54.24
2022-12-14T08:37:50.721Z,53.98
2022-12-14T08:40:23.242Z,53.71
2022-12-14T08:42:55.092Z,53.95
2022-12-14T08:45:27.300Z,54.30
2022-12-14T08:48:02.625Z,53.86
2022-12-14T08:50:34.909Z,54.36
2022-12-14T08:53:09.119Z,54.12
2022-12-14T08:55:44.008Z,53.98
2022-12-14T08:58:19.422Z,53.63
2022-12-14T09:00:52.039Z,54.05
2022-12-14T09:03:27.447Z,54.00
2022-12-14T09:06:08.234Z,53.73
2022-12-14T09:08:41.195Z,53.93
2022-12-14T09:11:18.088Z,53.91
2022-12-14T09:13:54.458Z,53.80
2022-12-14T09:16:27.794Z,54.05
2022-12-14T09:19:02.712Z,53.41
2022-12-14T09:21:38.568Z,53.69
2022-12-14T09:24:12.074Z,53.44
2022-12-14T09:26:47.036Z,53.57
2022-12-14T09:29:21.223Z,53.59
2022-12-14T09:31:53.523Z,53.56
2022-12-14T09:34:27.343Z,53.37
2022-12-14T09:37:04.469Z,53.56
2022-12-14T09:39:38.144Z,53.40
2022-12-14T09:42:23.507Z,53.23
2022-12-14T09:45:03.555Z,53.04
2022-12-14T09:47:42.509Z,52.55
2022-12-14T09:50:21.676Z,52.22
2022-12-14T09:52:56.132Z,51.98
2022-12-14T09:55:31.397Z,52.03
2022-12-14T09:58:10.727Z,51.83
2022-12-14T10:00:53.323Z,51.90
2022-12-14T10:03:39.803Z,52.12
2022-12-14T10:06:33.308Z,52.08
2022-12-14T10:09:14.738Z,51.93
2022-12-14T10:11:55.148Z,51.79
2022-12-14T10:14:37.243Z,51.67
2022-12-14T10:17:17.839Z,51.97
2022-12-14T10:19:56.527Z,52.03
2022-12-14T10:22:30.848Z,52.14
2022-12-14T10:25:11.658Z,51.59
2022-12-14T10:28:09.938Z,51.83
2022-12-14T10:30:41.631Z,51.92
2022-12-14T10:33:21.719Z,51.66
2022-12-14T10:35:56.241Z,51.84
2022-12-14T10:38:35.132Z,51.91
2022-12-14T10:41:17.407Z,51.37
2022-12-14T10:43:56.349Z,51.41
2022-12-14T10:46:35.324Z,51.14
2022-12-14T10:49:17.573Z,50.60
2022-12-14T10:51:50.986Z,50.44
2022-12-14T10:54:29.261Z,50.61
2022-12-14T10:57:04.334Z,50.38
2022-12-14T11:00:03.044Z,50.34
2022-12-14T11:02:39.554Z,49.92
2022-12-14T11:05:36.039Z,49.38
2022-12-14T11:08:10.705Z,49.59
2022-12-14T11:10:44.519Z,49.94
2022-12-14T11:13:20.410Z,49.59
2022-12-14T11:16:15.192Z,49.90
2022-12-14T11:18:49.278Z,50.23
2022-12-14T11:21:25.163Z,50.46
2022-12-14T11:23:59.044Z,50.26
2022-12-14T11:26:34.425Z,50.22
2022-12-14T11:29:19.540Z,49.92
2022-12-14T11:31:54.775Z,49.81
2022-12-14T11:34:37.994Z,49.74
2022-12-14T11:37:21.572Z,49.38
2022-12-14T11:39:55.764Z,49.45
2022-12-14T11:42:29.413Z,49.62
2022-12-14T11:45:30.673Z,49.48
2022-12-14T11:48:29.872Z,49.77
2022-12-14T11:51:13.451Z,49.68
2022-12-14T11:53:47.783Z,49.43
2022-12-14T11:56:22.158Z,49.38
2022-12-14T11:58:56.320Z,49.68
2022-12-14T12:01:29.267Z,49.67
2022-12-14T12:04:03.018Z,49.46
2022-12-14T12:06:40.272Z,49.57
2022-12-14T12:09:25.168Z,49.73
2022-12-14T12:11:58.205Z,49.82
2022-12-14T12:14:34.613Z,49.73
2022-12-14T12:17:21.596Z,49.86
2022-12-14T12:19:54.774Z,50.19
2022-12-14T12:22:31.525Z,50.02
2022-12-14T12:28:03.335Z,49.61
2022-12-14T12:30:37.418Z,49.57
2022-12-14T12:33:21.222Z,49.79
2022-12-14T12:35:57.955Z,50.19
2022-12-14T12:38:43.699Z,50.31
2022-12-14T12:41:28.401Z,49.95
2022-12-14T12:44:06.725Z,49.98
2022-12-14T12:47:07.156Z,50.14
2022-12-14T12:49:38.307Z,50.73
2022-12-14T12:52:22.765Z,50.96
2022-12-14T12:55:02.015Z,50.62
2022-12-14T12:57:40.043Z,50.57
2022-12-14T13:00:19.319Z,50.79
2022-12-14T13:02:56.850Z,50.80
2022-12-14T13:05:48.465Z,50.74
2022-12-14T13:08:27.314Z,50.79
2022-12-14T13:11:25.722Z,51.04
2022-12-14T13:14:03.575Z,51.06
2022-12-14T13:16:37.908Z,51.22
2022-12-14T13:22:16.856Z,51.39
2022-12-14T13:24:57.231Z,51.52
2022-12-14T13:28:00.128Z,51.32
2022-12-14T13:30:46.575Z,51.40
2022-12-14T13:34:03.856Z,51.46
2022-12-14T13:37:14.010Z,51.01
2022-12-14T13:40:18.560Z,51.24
2022-12-14T13:42:56.795Z,50.96
2022-12-14T13:45:35.924Z,50.93
2022-12-14T13:48:09.724Z,51.10
2022-12-14T13:50:56.002Z,51.09
2022-12-14T13:53:37.631Z,51.16
2022-12-14T13:56:11.223Z,51.47
2022-12-14T13:58:45.402Z,51.37
2022-12-14T14:01:38.651Z,51.59
2022-12-14T14:04:29.703Z,51.21
2022-12-14T14:07:40.030Z,51.55
2022-12-14T14:10:32.051Z,51.36
2022-12-14T14:13:41.409Z,51.48
2022-12-14T14:16:28.310Z,51.35
2022-12-14T14:19:15.686Z,51.53
2022-12-14T14:25:00.798Z,51.41
2022-12-14T14:27:39.215Z,51.51
2022-12-14T14:30:26.304Z,51.29
2022-12-14T14:33:19.929Z,51.66
2022-12-14T14:35:56.092Z,51.87
2022-12-14T14:38:35.171Z,51.99
2022-12-14T14:41:17.698Z,52.14
2022-12-14T14:43:53.319Z,52.12
2022-12-14T14:46:37.782Z,52.40
2022-12-14T14:49:24.389Z,52.70
2022-12-14T14:52:02.729Z,52.72
2022-12-14T14:55:21.276Z,52.77
2022-12-14T14:58:00.461Z,53.18
2022-12-14T15:00:43.294Z,53.02
2022-12-14T15:03:17.818Z,53.00
2022-12-14T15:05:51.763Z,53.53
2022-12-14T15:08:33.317Z,53.40
2022-12-14T15:11:15.186Z,53.56
2022-12-14T15:13:54.994Z,53.73
2022-12-14T15:16:31.564Z,54.03
2022-12-14T15:19:28.563Z,54.12
2022-12-14T15:22:04.958Z,54.08
2022-12-14T15:24:41.286Z,53.93
2022-12-14T15:27:24.037Z,54.14
2022-12-14T15:30:00.769Z,54.45
2022-12-14T15:32:36.233Z,54.57
2022-12-14T15:35:14.817Z,54.75
2022-12-14T15:37:56.482Z,54.82
2022-12-14T15:40:35.773Z,54.92
2022-12-14T15:43:19.609Z,55.16
2022-12-14T15:45:55.453Z,55.26
2022-12-14T15:48:30.310Z,55.66
2022-12-14T15:51:09.518Z,55.62
2022-12-14T15:53:50.389Z,55.45
2022-12-14T15:56:29.480Z,55.37
2022-12-14T15:59:04.580Z,55.54
2022-12-14T16:01:39.957Z,55.44
2022-12-14T16:04:17.057Z,55.55
2022-12-14T16:06:52.198Z,55.79
2022-12-14T16:09:28.222Z,55.89
2022-12-14T16:12:03.779Z,56.01
2022-12-14T16:14:44.385Z,56.27
2022-12-14T16:17:21.965Z,55.86
2022-12-14T16:20:00.282Z,56.03
2022-12-14T16:22:36.032Z,55.90
2022-12-14T16:25:19.345Z,55.78
2022-12-14T16:27:53.013Z,55.79
2022-12-14T16:30:33.461Z,55.65
2022-12-14T16:33:16.905Z,55.82
2022-12-14T16:35:59.814Z,55.87
2022-12-14T16:38:32.972Z,56.24
2022-12-14T16:41:06.493Z,56.10
2022-12-14T16:43:42.439Z,56.18
2022-12-14T16:46:18.447Z,56.07
2022-12-14T16:49:24.055Z,55.83
2022-12-14T16:52:07.681Z,55.82
2022-12-14T16:54:41.340Z,55.51
2022-12-14T16:57:21.845Z,55.82
2022-12-14T17:00:00.551Z,56.03
2022-12-14T17:02:35.866Z,56.18
2022-12-14T17:05:16.498Z,56.02
2022-12-14T17:07:50.546Z,56.07
2022-12-14T17:10:27.049Z,56.39
2022-12-14T17:13:00.523Z,56.30
2022-12-14T17:15:35.612Z,56.41
2022-12-14T17:18:11.790Z,56.45
2022-12-14T17:20:45.163Z,56.54
2022-12-14T17:23:21.269Z,56.51
2022-12-14T17:25:53.590Z,56.20
2022-12-14T17:28:31.669Z,56.68
2022-12-14T17:31:06.228Z,56.48
2022-12-14T17:33:40.972Z,56.46
2022-12-14T17:36:13.129Z,56.30
2022-12-14T17:38:49.195Z,56.54
2022-12-14T17:41:26.602Z,56.64
2022-12-14T17:44:01.538Z,56.67
2022-12-14T17:46:34.933Z,56.65
2022-12-14T17:49:12.305Z,56.82
2022-12-14T17:51:46.281Z,57.05
2022-12-14T17:54:24.625Z,56.92
2022-12-14T17:57:00.791Z,56.96
2022-12-14T17:59:34.087Z,56.77
2022-12-14T18:02:10.142Z,56.48
2022-12-14T18:04:43.313Z,56.68
2022-12-14T18:07:18.223Z,56.65
2022-12-14T18:09:53.623Z,57.06
2022-12-14T18:12:26.290Z,57.04
2022-12-14T18:15:02.717Z,56.82
2022-12-14T18:17:36.048Z,57.02
2022-12-14T18:20:10.735Z,56.89
2022-12-14T18:22:49.592Z,56.81
2022-12-14T18:25:29.561Z,56.86
2022-12-14T18:28:03.280Z,56.81
2022-12-14T18:30:45.865Z,56.87
2022-12-14T18:33:24.129Z,57.34
2022-12-14T18:35:58.319Z,57.28
2022-12-14T18:38:30.617Z,57.32
2022-12-14T18:41:06.669Z,57.09
2022-12-14T18:43:43.693Z,57.18
2022-12-14T18:46:18.137Z,57.46
2022-12-14T18:48:51.750Z,57.24
2022-12-14T18:51:27.304Z,57.24
2022-12-14T18:54:02.531Z,57.29
2022-12-14T18:56:38.900Z,57.36
2022-12-14T18:59:17.621Z,57.24
2022-12-14T19:01:53.210Z,57.51
2022-12-14T19:04:35.102Z,57.24
2022-12-14T19:07:08.098Z,57.53
2022-12-14T19:09:41.055Z,57.43
2022-12-14T19:12:15.649Z,57.51
2022-12-14T19:14:53.652Z,57.60
2022-12-14T19:17:27.371Z,57.51
2022-12-14T19:20:00.868Z,57.40
2022-12-14T19:22:34.540Z,57.36
2022-12-14T19:25:13.068Z,57.49
2022-12-14T19:30:45.142Z,57.62
2022-12-14T19:33:17.924Z,57.90
2022-12-14T19:35:52.652Z,57.71
2022-12-14T19:38:28.503Z,58.15
2022-12-14T19:41:05.201Z,57.71
2022-12-14T19:43:38.145Z,57.59
2022-12-14T19:46:17.593Z,57.52
2022-12-14T19:48:51.248Z,57.25
2022-12-14T19:51:24.404Z,57.48
2022-12-14T19:53:57.714Z,57.47
2022-12-14T19:56:30.431Z,57.53
2022-12-14T19:59:04.366Z,57.61
2022-12-14T20:01:44.733Z,57.47
2022-12-14T20:04:22.603Z,57.65
2022-12-14T20:06:55.976Z,57.59
2022-12-14T20:09:31.408Z,57.54
2022-12-14T20:12:04.885Z,57.61
2022-12-14T20:14:41.270Z,57.65
2022-12-14T20:17:14.779Z,57.59
2022-12-14T20:19:48.712Z,57.60
2022-12-14T20:22:22.725Z,57.83
2022-12-14T20:24:55.952Z,57.86
2022-12-14T20:27:28.799Z,57.79
2022-12-14T20:30:02.834Z,57.91
2022-12-14T20:32:35.423Z,57.82
2022-12-14T20:35:12.384Z,57.51
2022-12-14T20:37:45.724Z,57.65
2022-12-14T20:40:18.957Z,57.62
2022-12-14T20:42:52.548Z,57.39
2022-12-14T20:45:26.054Z,57.69
2022-12-14T20:47:59.431Z,57.80
2022-12-14T20:50:31.671Z,57.81
2022-12-14T20:53:09.069Z,57.85
2022-12-14T20:55:41.751Z,57.80
2022-12-14T20:58:14.728Z,57.76
2022-12-14T21:00:47.762Z,57.67
2022-12-14T21:03:23.210Z,57.57
2022-12-14T21:05:58.437Z,57.65
2022-12-14T21:08:31.766Z,57.63
2022-12-14T21:11:21.788Z,57.73
2022-12-14T21:13:58.252Z,57.77
2022-12-14T21:16:30.545Z,57.80
2022-12-14T21:19:03.283Z,57.87
2022-12-14T21:21:37.524Z,57.87
2022-12-14T21:24:17.684Z,58.02
2022-12-14T21:27:08.663Z,58.19
2022-12-14T21:29:42.518Z,58.03
2022-12-14T21:32:16.313Z,58.01
2022-12-14T21:34:50.807Z,57.88
2022-12-14T21:37:24.522Z,57.84
2022-12-14T21:39:57.343Z,57.78
2022-12-14T21:42:31.661Z,57.82
2022-12-14T21:45:06.809Z,57.84
2022-12-14T21:47:41.620Z,58.08
2022-12-14T21:50:16.979Z,58.13
2022-12-14T21:52:49.651Z,57.90
2022-12-14T21:55:24.353Z,57.74
2022-12-14T21:58:14.536Z,57.83
2022-12-14T22:00:47.208Z,57.84
2022-12-14T22:03:21.013Z,57.83
2022-12-14T22:05:53.304Z,57.79
2022-12-14T22:08:30.095Z,57.76
2022-12-14T22:11:06.147Z,57.82
2022-12-14T22:13:39.943Z,57.78
2022-12-14T22:16:15.612Z,57.94
2022-12-14T22:18:50.243Z,57.88
2022-12-14T22:21:23.857Z,57.92
2022-12-14T22:23:57.379Z,57.72
2022-12-14T22:26:31.527Z,57.84
2022-12-14T22:29:04.861Z,57.80
2022-12-14T22:31:40.990Z,57.88
2022-12-14T22:34:19.097Z,57.87
2022-12-14T22:36:55.897Z,57.91
2022-12-14T22:39:30.931Z,57.76
2022-12-14T22:42:06.859Z,57.83
2022-12-14T22:44:45.137Z,57.76
2022-12-14T22:47:18.047Z,57.75
2022-12-14T22:49:51.567Z,57.96
2022-12-14T22:52:25.069Z,57.90
2022-12-14T22:54:57.988Z,57.70
2022-12-14T22:57:39.522Z,57.70
2022-12-14T23:00:17.015Z,57.58
2022-12-14T23:02:50.913Z,57.40
2022-12-14T23:05:24.472Z,57.62
2022-12-14T23:07:59.464Z,57.70
2022-12-14T23:10:51.083Z,57.50
2022-12-14T23:13:43.886Z,57.65
2022-12-14T23:16:37.888Z,57.55
2022-12-14T23:19:30.140Z,57.76
2022-12-14T23:22:21.790Z,57.84
2022-12-14T23:25:15.592Z,57.75
2022-12-14T23:28:08.626Z,57.75
2022-12-14T23:30:59.915Z,57.97
2022-12-14T23:33:52.929Z,57.85
2022-12-14T23:36:46.545Z,57.65
2022-12-14T23:39:39.955Z,58.04
2022-12-14T23:42:35.651Z,57.91
2022-12-14T23:45:28.296Z,58.06
2022-12-14T23:48:20.344Z,58.14
2022-12-14T23:51:10.671Z,58.17
2022-12-14T23:54:06.854Z,58.04
2022-12-14T23:56:58.088Z,58.29
2022-12-14T23:59:51.568Z,58.31
